Pedro Bay, AK

09:13 AM AKDT em 27 de Março de 2015 (GMT -0800)
Iliamna | | Change Station
CLOSE
Current Station
Aeroporto
Location: Iliamna,
Altitude: 161 ft
Estações Meteorológicas Próximas

Elev 161 ft 59.75 °N, 154.91 °W | Updated 20 minutes ago

Overcast
Céu Encoberto
37 °F
Aparente 29 °F
N
13
Vento Variável Vento de Este

Hoje
Máxima -- | Mínima -- °F
--% Possibilidade de Precip.
Ontem
Máxima -- | Mínima -- °F
Precip. -- pol
8:00 AM 8:51 PM
Quarto crescente, 54% visible
Pressão 29.45 pol
Visibilidade 10.0 milhas
Nuvens Poucas 2600 ft
Céu Encoberto 3300 ft
Sensação Térmica 29 °F
Ponto de Orvalho 32 °F
Humidade 82%
Chuva 0.01 pol
Altura de Neve Não disponível
UV 0 em vez de 12
Pólen Não disponível
Qualidade do Ar Não disponível
Flu Activity Não disponível
METAR PAIL 271653Z 08011KT 10SM FEW026 OVC033 03/00 A2944 RMK AO2 RAE15B34E46 SLP971 P0000 T00280000

More Conditions Fewer Conditions

Pressão 29.45 pol
Visibilidade 10.0 milhas
Nuvens Poucas 2600 ft
Céu Encoberto 3300 ft
Sensação Térmica 29 °F
Ponto de Orvalho 32 °F
Humidade 82%
Chuva 0.01 pol
Altura de Neve Não disponível
UV 0 em vez de 12
Pólen Não disponível
Qualidade do Ar Não disponível
Flu Activity Não disponível
METAR PAIL 271653Z 08011KT 10SM FEW026 OVC033 03/00 A2944 RMK AO2 RAE15B34E46 SLP971 P0000 T00280000

More Conditions Fewer Conditions

10-Day Weather Forecast

Almanac

Astronomia

Mar. 27, 2015 Nascer Pôr
Hora atual
Crepúsculo civil
Crepúsculo náutico
Crepúsculo astronómico
Lua
Comprimento da luz visível
Duração do Dia
Tomorrow will be .
, % of the Moon is Illuminated

Extremos de Hoje

situação na parte mais alta situação na parte mais baixa

Community

WunderPhotos

Upload Photos

1,808,768 fotografias inseridas!

WunderBlogs® & News

Nearby

Qualidade do Ar

  Qualidade do Ar Índice da Q.A. Poluente
Not available.

Altura da Neve

Estação altura Altitude

Actividade Sísmisca

Cidade Distância Mag. Hora & Data
Mínima magnitude apresentada é 2.5.

Temperaturas das Águas Costeiras

Local Temperatura

Stations

Estações Meteorológicas Próximas

Localização da Estação Temp. Sensação Térmica Ponto de Orvalho Humidade Vento Precip. Elev Actualizado Tipo